createdAt,value
2022-10-17T00:00:20.616Z,8.90
2022-10-17T00:03:06.402Z,8.97
2022-10-17T00:05:51.740Z,9.07
2022-10-17T00:08:37.967Z,9.57
2022-10-17T00:11:24.785Z,10.23
2022-10-17T00:14:09.920Z,9.50
2022-10-17T00:16:55.110Z,9.47
2022-10-17T00:19:40.372Z,8.70
2022-10-17T00:22:26.357Z,8.80
2022-10-17T00:25:12.974Z,9.03
2022-10-17T00:27:58.003Z,8.57
2022-10-17T00:30:43.282Z,9.23
2022-10-17T00:33:30.883Z,8.40
2022-10-17T00:36:19.471Z,8.23
2022-10-17T00:39:04.836Z,8.93
2022-10-17T00:41:51.307Z,8.63
2022-10-17T00:44:36.544Z,8.57
2022-10-17T00:47:23.074Z,8.23
2022-10-17T00:50:09.591Z,8.50
2022-10-17T00:52:58.720Z,8.37
2022-10-17T00:55:54.134Z,9.00
2022-10-17T00:58:39.602Z,7.77
2022-10-17T01:01:25.572Z,7.57
2022-10-17T01:04:11.003Z,7.30
2022-10-17T01:06:58.443Z,8.23
2022-10-17T01:09:46.239Z,7.90
2022-10-17T01:12:41.196Z,8.60
2022-10-17T01:15:37.029Z,8.17
2022-10-17T01:18:49.204Z,7.93
2022-10-17T01:22:06.794Z,7.33
2022-10-17T01:25:04.235Z,7.57
2022-10-17T01:28:01.972Z,7.70
2022-10-17T01:31:05.569Z,7.83
2022-10-17T01:34:17.148Z,7.47
2022-10-17T01:37:17.470Z,7.53
2022-10-17T01:40:16.556Z,7.43
2022-10-17T01:43:22.054Z,7.30
2022-10-17T01:46:18.313Z,7.27
2022-10-17T01:49:07.206Z,8.03
2022-10-17T01:52:24.978Z,7.33
2022-10-17T01:55:16.771Z,7.20
2022-10-17T01:58:08.214Z,7.07
2022-10-17T02:00:56.607Z,7.27
2022-10-17T02:03:45.208Z,7.00
2022-10-17T02:06:34.900Z,6.80
2022-10-17T02:09:23.836Z,6.83
2022-10-17T02:12:12.023Z,6.77
2022-10-17T02:15:36.808Z,7.27
2022-10-17T02:18:28.290Z,7.40
2022-10-17T02:21:22.984Z,6.70
2022-10-17T02:24:17.878Z,6.37
2022-10-17T02:27:17.166Z,6.10
2022-10-17T02:30:14.696Z,6.57
2022-10-17T02:33:06.433Z,6.37
2022-10-17T02:35:56.942Z,6.70
2022-10-17T02:38:44.480Z,6.77
2022-10-17T02:41:32.994Z,6.77
2022-10-17T02:44:20.186Z,6.03
2022-10-17T02:47:31.609Z,5.83
2022-10-17T02:50:18.542Z,5.93
2022-10-17T02:53:15.388Z,5.73
2022-10-17T02:56:10.603Z,6.40
2022-10-17T02:58:59.712Z,5.97
2022-10-17T03:01:45.267Z,6.13
2022-10-17T03:04:30.408Z,6.13
2022-10-17T03:07:15.507Z,6.57
2022-10-17T03:10:00.774Z,6.00
2022-10-17T03:12:45.959Z,6.27
2022-10-17T03:15:31.391Z,6.93
2022-10-17T03:18:17.640Z,6.00
2022-10-17T03:21:04.505Z,6.20
2022-10-17T03:23:51.035Z,5.27
2022-10-17T03:26:38.243Z,6.10
2022-10-17T03:29:23.496Z,6.10
2022-10-17T03:32:08.791Z,6.27
2022-10-17T03:34:54.906Z,6.07
2022-10-17T03:37:40.180Z,6.30
2022-10-17T03:40:25.387Z,5.80
2022-10-17T03:43:11.923Z,5.47
2022-10-17T03:45:59.542Z,5.97
2022-10-17T03:48:44.821Z,5.63
2022-10-17T03:51:30.101Z,6.03
2022-10-17T03:54:21.482Z,5.33
2022-10-17T03:57:06.721Z,5.80
2022-10-17T03:59:52.581Z,5.83
2022-10-17T04:02:39.368Z,5.70
2022-10-17T04:05:24.596Z,5.40
2022-10-17T04:08:09.937Z,5.57
2022-10-17T04:11:20.288Z,5.63
2022-10-17T04:14:06.876Z,5.93
2022-10-17T04:16:53.538Z,5.87
2022-10-17T04:19:39.787Z,5.57
2022-10-17T04:22:25.618Z,5.87
2022-10-17T04:25:11.294Z,5.80
2022-10-17T04:28:00.030Z,5.20
2022-10-17T04:30:45.700Z,5.20
2022-10-17T04:33:33.483Z,5.93
2022-10-17T04:36:20.204Z,5.17
2022-10-17T04:39:06.003Z,5.90
2022-10-17T04:41:51.813Z,5.37
2022-10-17T04:44:37.729Z,4.83
2022-10-17T04:47:24.140Z,4.93
2022-10-17T04:50:09.630Z,5.37
2022-10-17T04:52:54.907Z,4.60
2022-10-17T04:55:40.613Z,4.50
2022-10-17T04:58:28.482Z,4.80
2022-10-17T05:01:16.254Z,4.43
2022-10-17T05:04:04.077Z,4.13
2022-10-17T05:06:49.286Z,4.10
2022-10-17T05:09:50.055Z,3.93
2022-10-17T05:12:36.789Z,3.50
2022-10-17T05:15:23.679Z,4.23
2022-10-17T05:18:11.507Z,4.17
2022-10-17T05:20:57.032Z,3.97
2022-10-17T05:23:42.961Z,3.87
2022-10-17T05:26:28.623Z,4.43
2022-10-17T05:29:14.926Z,4.43
2022-10-17T05:32:06.063Z,4.93
2022-10-17T05:34:52.966Z,4.30
2022-10-17T05:37:40.327Z,4.77
2022-10-17T05:40:25.607Z,4.90
2022-10-17T05:43:12.427Z,4.27
2022-10-17T05:45:57.950Z,4.93
2022-10-17T05:48:43.335Z,5.07
2022-10-17T05:51:28.683Z,4.83
2022-10-17T05:54:15.421Z,23.97
2022-10-17T05:57:00.626Z,50.77
2022-10-17T05:59:49.558Z,99.00
2022-10-17T06:02:38.320Z,109.20
2022-10-17T06:05:24.287Z,94.63
2022-10-17T06:08:09.787Z,96.70
2022-10-17T06:10:55.407Z,90.13
2022-10-17T06:13:41.594Z,83.70
2022-10-17T06:16:36.357Z,79.37
2022-10-17T06:19:21.797Z,73.77
2022-10-17T06:22:07.323Z,69.57
2022-10-17T06:24:53.934Z,63.03
2022-10-17T06:27:39.380Z,63.50
2022-10-17T06:30:25.701Z,61.03
2022-10-17T06:33:11.190Z,60.60
2022-10-17T06:35:56.941Z,59.70
2022-10-17T06:38:44.090Z,61.23
2022-10-17T06:41:56.990Z,59.37
2022-10-17T06:44:56.576Z,61.27
2022-10-17T06:47:55.361Z,58.40
2022-10-17T06:51:10.005Z,61.77
2022-10-17T06:54:05.232Z,62.97
2022-10-17T06:57:05.677Z,62.47
2022-10-17T07:03:02.097Z,63.97
2022-10-17T07:05:52.274Z,67.30
2022-10-17T07:08:37.768Z,65.43
2022-10-17T07:11:23.505Z,66.97
2022-10-17T07:14:10.920Z,70.53
2022-10-17T07:16:56.598Z,72.17
2022-10-17T07:19:46.104Z,73.20
2022-10-17T07:22:31.530Z,74.87
2022-10-17T07:25:17.455Z,76.40
2022-10-17T07:28:08.575Z,115.93
2022-10-17T07:30:54.951Z,197.33
2022-10-17T07:33:40.238Z,311.60
2022-10-17T07:36:26.113Z,375.47
2022-10-17T07:39:13.016Z,426.90
2022-10-17T07:41:59.540Z,444.43
2022-10-17T07:44:47.470Z,450.27
2022-10-17T07:47:36.085Z,451.37
2022-10-17T07:50:24.670Z,442.50
2022-10-17T07:53:09.909Z,439.63
2022-10-17T07:55:55.245Z,437.23
2022-10-17T07:58:40.433Z,419.27
2022-10-17T08:01:26.004Z,424.33
2022-10-17T08:04:11.177Z,402.83
2022-10-17T08:07:05.629Z,399.00
2022-10-17T08:09:57.016Z,383.57
2022-10-17T08:12:42.461Z,377.33
2022-10-17T08:15:31.055Z,369.00
2022-10-17T08:18:18.334Z,364.17
2022-10-17T08:21:06.420Z,356.70
2022-10-17T08:23:51.791Z,350.30
2022-10-17T08:26:40.666Z,341.70
2022-10-17T08:29:29.222Z,344.60
2022-10-17T08:32:14.671Z,339.60
2022-10-17T08:35:00.088Z,328.70
2022-10-17T08:37:45.339Z,324.93
2022-10-17T08:40:35.533Z,321.37
2022-10-17T08:43:37.488Z,318.23
2022-10-17T08:46:28.676Z,314.10
2022-10-17T08:49:29.955Z,314.27
2022-10-17T08:52:25.453Z,308.33
2022-10-17T08:55:17.476Z,308.03
2022-10-17T08:58:02.912Z,305.03
2022-10-17T09:01:01.151Z,304.07
2022-10-17T09:04:27.258Z,296.67
2022-10-17T09:07:18.620Z,296.07
2022-10-17T09:10:10.569Z,293.70
2022-10-17T09:13:24.010Z,284.60
2022-10-17T09:16:30.245Z,280.63
2022-10-17T09:19:21.275Z,281.10
2022-10-17T09:22:16.064Z,276.27
2022-10-17T09:25:07.104Z,274.47
2022-10-17T09:27:59.345Z,275.70
2022-10-17T09:30:48.082Z,266.13
2022-10-17T09:33:53.975Z,269.70
2022-10-17T09:36:40.919Z,266.33
2022-10-17T09:39:29.229Z,265.57
2022-10-17T09:42:21.402Z,264.53
2022-10-17T09:45:26.161Z,262.40
2022-10-17T09:48:17.296Z,263.53
2022-10-17T09:51:14.756Z,258.40
2022-10-17T09:54:22.854Z,254.63
2022-10-17T09:57:10.590Z,256.00
2022-10-17T09:59:57.851Z,252.97
2022-10-17T10:02:43.413Z,252.67
2022-10-17T10:05:28.488Z,252.47
2022-10-17T10:08:17.200Z,251.83
2022-10-17T10:11:06.575Z,248.33
2022-10-17T10:13:53.085Z,247.67
2022-10-17T10:16:43.314Z,246.57
2022-10-17T10:19:31.290Z,245.23
2022-10-17T10:22:18.186Z,235.60
2022-10-17T10:25:16.778Z,241.43
2022-10-17T10:28:03.123Z,235.33
2022-10-17T10:30:51.359Z,235.33
2022-10-17T10:33:44.185Z,231.03
2022-10-17T10:36:44.914Z,228.73
2022-10-17T10:39:55.238Z,229.03
2022-10-17T10:42:42.068Z,223.63
2022-10-17T10:45:47.416Z,227.33
2022-10-17T10:48:37.644Z,212.67
2022-10-17T10:51:35.386Z,129.80
2022-10-17T10:54:35.731Z,177.83
2022-10-17T10:57:25.666Z,198.30
2022-10-17T11:00:22.362Z,199.70
2022-10-17T11:03:19.062Z,199.33
2022-10-17T11:06:13.799Z,199.73
2022-10-17T11:09:36.986Z,198.10
2022-10-17T11:12:33.124Z,193.65
2022-10-17T11:15:21.995Z,191.87
2022-10-17T11:18:11.269Z,191.53
2022-10-17T11:21:00.151Z,192.70
2022-10-17T11:24:18.747Z,189.10
2022-10-17T11:27:06.526Z,190.73
2022-10-17T11:29:51.838Z,182.20
2022-10-17T11:32:43.938Z,184.77
2022-10-17T11:35:43.976Z,183.73
2022-10-17T11:38:55.731Z,188.80
2022-10-17T11:41:49.904Z,189.10
2022-10-17T11:44:38.397Z,187.17
2022-10-17T11:47:38.268Z,193.17
2022-10-17T11:53:45.315Z,189.20
2022-10-17T11:56:49.744Z,188.50
2022-10-17T11:59:47.261Z,184.97
2022-10-17T12:02:48.635Z,181.03
2022-10-17T12:05:46.537Z,176.97
2022-10-17T12:09:01.352Z,179.10
2022-10-17T12:11:56.953Z,173.93
2022-10-17T12:14:48.357Z,177.27
2022-10-17T12:17:40.548Z,175.90
2022-10-17T12:20:37.121Z,174.27
2022-10-17T12:23:30.888Z,170.30
2022-10-17T12:26:26.738Z,170.13
2022-10-17T12:29:29.024Z,85.50
2022-10-17T12:32:15.470Z,84.00
2022-10-17T12:35:01.398Z,120.37
2022-10-17T12:37:57.340Z,140.60
2022-10-17T12:40:48.622Z,146.20
2022-10-17T12:43:42.685Z,139.97
2022-10-17T12:46:49.189Z,142.00
2022-10-17T12:49:41.848Z,141.00
2022-10-17T12:52:35.279Z,143.07
2022-10-17T12:58:16.358Z,96.50
2022-10-17T13:01:24.066Z,113.83
2022-10-17T13:04:10.860Z,134.53
2022-10-17T13:06:59.175Z,131.43
2022-10-17T13:09:45.394Z,134.07
2022-10-17T13:12:38.931Z,132.23
2022-10-17T13:15:26.835Z,85.83
2022-10-17T13:18:19.136Z,117.17
2022-10-17T13:21:16.745Z,132.20
2022-10-17T13:24:19.994Z,129.90
2022-10-17T13:27:19.840Z,126.28
2022-10-17T13:30:37.795Z,130.80
2022-10-17T13:33:32.215Z,128.57
2022-10-17T13:36:19.714Z,128.97
2022-10-17T13:39:12.269Z,125.93
2022-10-17T13:41:59.618Z,125.17
2022-10-17T13:44:46.213Z,122.83
2022-10-17T13:47:36.675Z,119.53
2022-10-17T13:50:43.543Z,118.60
2022-10-17T13:53:35.242Z,120.80
2022-10-17T13:56:29.781Z,61.67
2022-10-17T13:59:40.177Z,81.13
2022-10-17T14:02:29.305Z,103.07
2022-10-17T14:05:20.505Z,99.37
2022-10-17T14:08:11.799Z,104.43
2022-10-17T14:10:58.536Z,102.97
2022-10-17T14:13:50.180Z,102.13
2022-10-17T14:16:39.064Z,103.43
2022-10-17T14:19:34.941Z,103.50
2022-10-17T14:22:23.303Z,105.77
2022-10-17T14:25:32.049Z,104.37
2022-10-17T14:28:18.457Z,101.13
2022-10-17T14:31:10.063Z,100.93
2022-10-17T14:33:55.851Z,103.73
2022-10-17T14:36:44.248Z,102.47
2022-10-17T14:39:29.875Z,58.33
2022-10-17T14:42:23.170Z,65.53
2022-10-17T14:45:14.859Z,90.65
2022-10-17T14:48:04.442Z,95.93
2022-10-17T14:51:19.549Z,99.40
2022-10-17T14:54:24.788Z,112.40
2022-10-17T14:57:22.231Z,126.93
2022-10-17T15:00:08.395Z,134.77
2022-10-17T15:02:55.060Z,178.40
2022-10-17T15:05:40.515Z,190.43
2022-10-17T15:08:25.978Z,177.30
2022-10-17T15:11:12.019Z,189.37
2022-10-17T15:13:57.356Z,203.70
2022-10-17T15:16:42.543Z,205.17
2022-10-17T15:19:27.877Z,203.50
2022-10-17T15:22:13.600Z,200.80
2022-10-17T15:24:59.170Z,199.83
2022-10-17T15:27:44.445Z,125.30
2022-10-17T15:30:32.459Z,108.97
2022-10-17T15:33:18.031Z,140.37
2022-10-17T15:36:03.564Z,149.70
2022-10-17T15:38:50.592Z,161.13
2022-10-17T15:41:35.977Z,159.13
2022-10-17T15:44:21.410Z,157.90
2022-10-17T15:47:07.137Z,160.87
2022-10-17T15:49:53.314Z,154.60
2022-10-17T15:52:39.008Z,153.17
2022-10-17T15:55:24.498Z,156.00
2022-10-17T15:58:15.327Z,156.63
2022-10-17T16:01:00.921Z,156.40
2022-10-17T16:03:49.793Z,156.63
2022-10-17T16:06:35.690Z,157.43
2022-10-17T16:09:21.527Z,152.93
2022-10-17T16:12:14.361Z,150.00
2022-10-17T16:14:59.932Z,145.10
2022-10-17T16:17:45.960Z,146.97
2022-10-17T16:20:32.085Z,144.10
2022-10-17T16:23:17.248Z,106.17
2022-10-17T16:26:03.014Z,123.10
2022-10-17T16:28:48.988Z,130.17
2022-10-17T16:31:36.521Z,125.00
2022-10-17T16:34:22.218Z,124.03
2022-10-17T16:37:07.871Z,124.33
2022-10-17T16:39:53.672Z,120.93
2022-10-17T16:42:38.980Z,120.40
2022-10-17T16:45:24.353Z,120.03
2022-10-17T16:48:10.643Z,115.70
2022-10-17T16:50:56.134Z,115.37
2022-10-17T16:53:45.686Z,73.90
2022-10-17T16:56:33.048Z,97.50
2022-10-17T16:59:18.826Z,97.07
2022-10-17T17:02:04.395Z,95.90
2022-10-17T17:04:49.967Z,96.87
2022-10-17T17:07:35.429Z,96.53
2022-10-17T17:10:20.698Z,91.30
2022-10-17T17:13:05.978Z,91.07
2022-10-17T17:15:53.739Z,89.37
2022-10-17T17:18:40.418Z,94.27
2022-10-17T17:21:27.831Z,93.67
2022-10-17T17:24:13.951Z,86.63
2022-10-17T17:26:59.922Z,85.20
2022-10-17T17:29:47.344Z,83.80
2022-10-17T17:32:33.121Z,85.77
2022-10-17T17:35:18.673Z,83.20
2022-10-17T17:38:04.560Z,81.57
2022-10-17T17:40:51.302Z,77.90
2022-10-17T17:43:36.493Z,77.83
2022-10-17T17:46:22.939Z,74.63
2022-10-17T17:49:09.482Z,79.80
2022-10-17T17:51:55.005Z,79.37
2022-10-17T17:54:41.058Z,74.83
2022-10-17T17:57:29.375Z,75.40
2022-10-17T18:00:15.034Z,70.90
2022-10-17T18:03:02.293Z,73.13
2022-10-17T18:05:48.583Z,74.33
2022-10-17T18:08:35.319Z,70.97
2022-10-17T18:11:22.207Z,70.97
2022-10-17T18:14:12.202Z,70.73
2022-10-17T18:16:57.958Z,66.73
2022-10-17T18:19:43.430Z,65.70
2022-10-17T18:22:29.060Z,67.73
2022-10-17T18:25:14.738Z,65.50
2022-10-17T18:28:00.687Z,62.23
2022-10-17T18:30:46.445Z,62.00
2022-10-17T18:33:31.792Z,63.10
2022-10-17T18:36:17.237Z,61.23
2022-10-17T18:39:02.456Z,63.70
2022-10-17T18:41:47.778Z,60.80
2022-10-17T18:44:33.256Z,61.13
2022-10-17T18:47:18.366Z,59.73
2022-10-17T18:50:03.879Z,59.43
2022-10-17T18:52:49.803Z,59.40
2022-10-17T18:55:39.471Z,57.57
2022-10-17T18:58:25.138Z,56.40
2022-10-17T19:01:17.847Z,57.00
2022-10-17T19:04:03.223Z,54.97
2022-10-17T19:06:48.555Z,58.30
2022-10-17T19:09:34.142Z,59.17
2022-10-17T19:12:19.725Z,57.40
2022-10-17T19:15:05.395Z,58.97
2022-10-17T19:17:50.983Z,57.13
2022-10-17T19:20:36.502Z,56.83
2022-10-17T19:23:22.109Z,58.27
2022-10-17T19:26:12.737Z,57.13
2022-10-17T19:29:00.332Z,58.27
2022-10-17T19:31:47.579Z,55.97
2022-10-17T19:34:33.240Z,54.43
2022-10-17T19:37:18.771Z,56.30
2022-10-17T19:40:04.818Z,56.50
2022-10-17T19:42:50.626Z,56.03
2022-10-17T19:45:36.140Z,52.67
2022-10-17T19:48:21.552Z,54.13
2022-10-17T19:51:08.853Z,54.10
2022-10-17T19:53:56.763Z,53.90
2022-10-17T19:56:43.467Z,52.57
2022-10-17T19:59:28.912Z,52.53
2022-10-17T20:02:14.260Z,52.33
2022-10-17T20:05:17.640Z,52.53
2022-10-17T20:08:03.909Z,51.87
2022-10-17T20:10:49.107Z,52.20
2022-10-17T20:13:35.860Z,51.67
2022-10-17T20:16:26.631Z,50.70
2022-10-17T20:19:13.048Z,50.53
2022-10-17T20:21:58.514Z,50.40
2022-10-17T20:24:43.787Z,50.83
2022-10-17T20:27:29.000Z,50.37
2022-10-17T20:30:14.457Z,50.10
2022-10-17T20:32:59.953Z,48.43
2022-10-17T20:38:35.945Z,49.60
2022-10-17T20:41:21.693Z,47.07
2022-10-17T20:44:07.158Z,46.87
2022-10-17T20:47:01.581Z,48.20
2022-10-17T20:49:48.159Z,47.23
2022-10-17T20:52:33.350Z,47.70
2022-10-17T20:55:18.737Z,46.07
2022-10-17T20:58:04.231Z,47.33
2022-10-17T21:00:49.710Z,47.53
2022-10-17T21:03:38.719Z,45.77
2022-10-17T21:06:26.194Z,45.07
2022-10-17T21:09:11.653Z,44.93
2022-10-17T21:11:57.544Z,43.97
2022-10-17T21:14:42.677Z,45.63
2022-10-17T21:17:28.235Z,43.63
2022-10-17T21:20:13.379Z,43.40
2022-10-17T21:23:00.571Z,44.33
2022-10-17T21:25:46.183Z,44.33
2022-10-17T21:28:32.415Z,44.53
2022-10-17T21:31:18.797Z,44.33
2022-10-17T21:34:15.694Z,43.40
2022-10-17T21:37:01.234Z,43.53
2022-10-17T21:39:46.619Z,44.47
2022-10-17T21:42:32.187Z,42.70
2022-10-17T21:45:25.372Z,44.30
2022-10-17T21:48:12.949Z,43.65
2022-10-17T21:51:01.153Z,41.50
2022-10-17T21:53:46.867Z,41.93
2022-10-17T21:56:33.945Z,42.27
2022-10-17T21:59:19.364Z,40.90
2022-10-17T22:02:04.553Z,41.70
2022-10-17T22:04:49.815Z,41.57
2022-10-17T22:07:35.263Z,41.23
2022-10-17T22:10:20.547Z,40.57
2022-10-17T22:13:06.249Z,39.70
2022-10-17T22:15:51.630Z,42.40
2022-10-17T22:18:37.583Z,40.57
2022-10-17T22:21:23.549Z,40.23
2022-10-17T22:24:12.368Z,40.40
2022-10-17T22:26:57.612Z,38.17
2022-10-17T22:29:42.801Z,39.07
2022-10-17T22:32:28.012Z,39.00
2022-10-17T22:35:13.484Z,40.63
2022-10-17T22:37:58.930Z,37.80
2022-10-17T22:40:45.669Z,38.43
2022-10-17T22:43:31.141Z,38.47
2022-10-17T22:46:17.095Z,38.37
2022-10-17T22:49:02.908Z,37.57
2022-10-17T22:51:48.371Z,38.93
2022-10-17T22:54:33.615Z,37.13
2022-10-17T22:57:18.774Z,36.33
2022-10-17T23:00:06.033Z,36.40
2022-10-17T23:02:54.464Z,38.57
2022-10-17T23:05:40.203Z,38.73
2022-10-17T23:08:26.557Z,35.73
2022-10-17T23:11:12.656Z,35.40
2022-10-17T23:13:57.903Z,34.90
2022-10-17T23:16:43.199Z,35.50
2022-10-17T23:19:28.451Z,35.50
2022-10-17T23:22:13.836Z,35.27
2022-10-17T23:24:59.047Z,34.53
2022-10-17T23:27:44.242Z,34.53
2022-10-17T23:30:33.363Z,35.60
2022-10-17T23:33:19.428Z,35.23
2022-10-17T23:36:05.359Z,35.67
2022-10-17T23:38:52.715Z,33.23
2022-10-17T23:41:40.607Z,34.90
2022-10-17T23:44:25.905Z,33.93
2022-10-17T23:47:11.202Z,34.10
2022-10-17T23:49:56.900Z,35.17
2022-10-17T23:52:42.204Z,33.57
2022-10-17T23:55:27.433Z,32.33
2022-10-17T23:58:12.752Z,34.60
